sensor_id;sensor_type;location;lat;lon;timestamp;temperature;humidity
10263;DHT22;5177;50.068;8.156;2024-03-29T00:00:22;6.90;99.90
10263;DHT22;5177;50.068;8.156;2024-03-29T00:02:47;6.90;99.90
10263;DHT22;5177;50.068;8.156;2024-03-29T00:05:13;6.90;99.90
10263;DHT22;5177;50.068;8.156;2024-03-29T00:07:38;6.70;99.90
10263;DHT22;5177;50.068;8.156;2024-03-29T00:10:04;6.70;99.90
10263;DHT22;5177;50.068;8.156;2024-03-29T00:12:29;6.60;99.90
10263;DHT22;5177;50.068;8.156;2024-03-29T00:14:55;6.50;99.90
10263;DHT22;5177;50.068;8.156;2024-03-29T00:17:21;6.50;99.90
10263;DHT22;5177;50.068;8.156;2024-03-29T00:19:47;6.50;99.90
10263;DHT22;5177;50.068;8.156;2024-03-29T00:22:12;6.50;99.90
10263;DHT22;5177;50.068;8.156;2024-03-29T00:24:38;6.40;99.90
10263;DHT22;5177;50.068;8.156;2024-03-29T00:27:03;6.40;99.90
10263;DHT22;5177;50.068;8.156;2024-03-29T00:29:29;6.40;99.90
10263;DHT22;5177;50.068;8.156;2024-03-29T00:31:55;6.40;99.90
10263;DHT22;5177;50.068;8.156;2024-03-29T00:34:20;6.50;1.00
10263;DHT22;5177;50.068;8.156;2024-03-29T00:36:46;6.50;99.90
10263;DHT22;5177;50.068;8.156;2024-03-29T00:39:11;6.50;99.90
10263;DHT22;5177;50.068;8.156;2024-03-29T00:41:37;6.50;99.90
10263;DHT22;5177;50.068;8.156;2024-03-29T00:44:02;6.50;99.90
10263;DHT22;5177;50.068;8.156;2024-03-29T00:46:28;6.60;1.00
10263;DHT22;5177;50.068;8.156;2024-03-29T00:48:53;6.50;99.90
10263;DHT22;5177;50.068;8.156;2024-03-29T00:51:19;6.50;1.00
10263;DHT22;5177;50.068;8.156;2024-03-29T00:53:44;6.50;99.90
10263;DHT22;5177;50.068;8.156;2024-03-29T00:56:10;6.50;99.90
10263;DHT22;5177;50.068;8.156;2024-03-29T00:58:35;6.50;99.90
10263;DHT22;5177;50.068;8.156;2024-03-29T01:01:01;6.40;99.90
10263;DHT22;5177;50.068;8.156;2024-03-29T01:03:26;6.50;99.90
10263;DHT22;5177;50.068;8.156;2024-03-29T01:05:56;6.50;99.90
10263;DHT22;5177;50.068;8.156;2024-03-29T01:08:22;6.50;99.90
10263;DHT22;5177;50.068;8.156;2024-03-29T01:10:49;6.50;99.90
10263;DHT22;5177;50.068;8.156;2024-03-29T01:13:14;6.60;99.90
10263;DHT22;5177;50.068;8.156;2024-03-29T01:15:40;6.50;99.90
10263;DHT22;5177;50.068;8.156;2024-03-29T01:18:05;6.50;1.00
10263;DHT22;5177;50.068;8.156;2024-03-29T01:20:31;6.60;1.00
10263;DHT22;5177;50.068;8.156;2024-03-29T01:22:56;6.60;99.90
10263;DHT22;5177;50.068;8.156;2024-03-29T01:25:22;6.60;99.90
10263;DHT22;5177;50.068;8.156;2024-03-29T01:27:49;6.60;99.90
10263;DHT22;5177;50.068;8.156;2024-03-29T01:30:15;6.70;1.00
10263;DHT22;5177;50.068;8.156;2024-03-29T01:32:40;6.70;1.00
10263;DHT22;5177;50.068;8.156;2024-03-29T01:35:06;6.70;1.00
10263;DHT22;5177;50.068;8.156;2024-03-29T01:37:31;6.80;99.90
10263;DHT22;5177;50.068;8.156;2024-03-29T01:39:57;6.80;99.90
10263;DHT22;5177;50.068;8.156;2024-03-29T01:42:22;6.80;99.90
10263;DHT22;5177;50.068;8.156;2024-03-29T01:44:48;6.90;99.90
10263;DHT22;5177;50.068;8.156;2024-03-29T01:47:13;6.90;1.00
10263;DHT22;5177;50.068;8.156;2024-03-29T01:49:39;6.90;99.90
10263;DHT22;5177;50.068;8.156;2024-03-29T01:52:05;6.80;1.00
10263;DHT22;5177;50.068;8.156;2024-03-29T01:54:31;6.90;99.90
10263;DHT22;5177;50.068;8.156;2024-03-29T01:56:57;6.90;99.90
10263;DHT22;5177;50.068;8.156;2024-03-29T01:59:22;6.80;99.90
10263;DHT22;5177;50.068;8.156;2024-03-29T02:01:49;6.90;99.90
10263;DHT22;5177;50.068;8.156;2024-03-29T02:04:14;6.80;99.90
10263;DHT22;5177;50.068;8.156;2024-03-29T02:06:40;6.90;99.90
10263;DHT22;5177;50.068;8.156;2024-03-29T02:09:05;6.90;99.90
10263;DHT22;5177;50.068;8.156;2024-03-29T02:11:31;6.90;99.90
10263;DHT22;5177;50.068;8.156;2024-03-29T02:13:57;6.90;99.90
10263;DHT22;5177;50.068;8.156;2024-03-29T02:16:23;6.90;99.90
10263;DHT22;5177;50.068;8.156;2024-03-29T02:18:48;6.90;99.90
10263;DHT22;5177;50.068;8.156;2024-03-29T02:21:14;6.90;99.90
10263;DHT22;5177;50.068;8.156;2024-03-29T02:23:40;6.90;99.90
10263;DHT22;5177;50.068;8.156;2024-03-29T02:26:08;7.00;99.90
10263;DHT22;5177;50.068;8.156;2024-03-29T02:28:33;7.00;99.90
10263;DHT22;5177;50.068;8.156;2024-03-29T02:30:59;7.00;99.90
10263;DHT22;5177;50.068;8.156;2024-03-29T02:33:25;7.00;1.00
10263;DHT22;5177;50.068;8.156;2024-03-29T02:35:50;7.10;1.00
10263;DHT22;5177;50.068;8.156;2024-03-29T02:38:16;7.10;1.00
10263;DHT22;5177;50.068;8.156;2024-03-29T02:40:41;7.10;1.00
10263;DHT22;5177;50.068;8.156;2024-03-29T02:43:07;7.20;1.00
10263;DHT22;5177;50.068;8.156;2024-03-29T02:45:32;7.20;1.00
10263;DHT22;5177;50.068;8.156;2024-03-29T02:47:58;7.20;1.00
10263;DHT22;5177;50.068;8.156;2024-03-29T02:50:23;7.30;1.00
10263;DHT22;5177;50.068;8.156;2024-03-29T02:52:49;7.30;1.00
10263;DHT22;5177;50.068;8.156;2024-03-29T02:55:14;7.30;1.00
10263;DHT22;5177;50.068;8.156;2024-03-29T02:57:40;7.30;1.00
10263;DHT22;5177;50.068;8.156;2024-03-29T03:00:05;7.30;1.00
10263;DHT22;5177;50.068;8.156;2024-03-29T03:02:31;7.20;1.00
10263;DHT22;5177;50.068;8.156;2024-03-29T03:04:57;7.20;1.00
10263;DHT22;5177;50.068;8.156;2024-03-29T03:07:22;7.30;1.00
10263;DHT22;5177;50.068;8.156;2024-03-29T03:10:06;7.30;1.00
10263;DHT22;5177;50.068;8.156;2024-03-29T03:12:51;7.30;1.00
10263;DHT22;5177;50.068;8.156;2024-03-29T03:15:16;7.30;1.00
10263;DHT22;5177;50.068;8.156;2024-03-29T03:17:42;7.30;1.00
10263;DHT22;5177;50.068;8.156;2024-03-29T03:20:07;7.30;1.00
10263;DHT22;5177;50.068;8.156;2024-03-29T03:22:34;7.30;1.00
10263;DHT22;5177;50.068;8.156;2024-03-29T03:25:00;7.30;1.00
10263;DHT22;5177;50.068;8.156;2024-03-29T03:27:25;7.30;1.00
10263;DHT22;5177;50.068;8.156;2024-03-29T03:29:51;7.30;99.90
10263;DHT22;5177;50.068;8.156;2024-03-29T03:32:16;7.30;99.90
10263;DHT22;5177;50.068;8.156;2024-03-29T03:34:41;7.40;99.90
10263;DHT22;5177;50.068;8.156;2024-03-29T03:37:07;7.40;99.90
10263;DHT22;5177;50.068;8.156;2024-03-29T03:39:32;7.40;99.90
10263;DHT22;5177;50.068;8.156;2024-03-29T03:41:58;7.40;99.90
10263;DHT22;5177;50.068;8.156;2024-03-29T03:44:24;7.40;99.90
10263;DHT22;5177;50.068;8.156;2024-03-29T03:46:50;7.40;99.90
10263;DHT22;5177;50.068;8.156;2024-03-29T03:49:16;7.40;99.90
10263;DHT22;5177;50.068;8.156;2024-03-29T03:51:41;7.40;1.00
10263;DHT22;5177;50.068;8.156;2024-03-29T03:54:07;7.40;1.00
10263;DHT22;5177;50.068;8.156;2024-03-29T03:56:33;7.40;99.90
10263;DHT22;5177;50.068;8.156;2024-03-29T03:58:58;7.40;1.00
10263;DHT22;5177;50.068;8.156;2024-03-29T04:01:24;7.30;1.00
10263;DHT22;5177;50.068;8.156;2024-03-29T04:03:49;7.30;99.90
10263;DHT22;5177;50.068;8.156;2024-03-29T04:06:14;7.30;1.00
10263;DHT22;5177;50.068;8.156;2024-03-29T04:08:40;7.30;99.90
10263;DHT22;5177;50.068;8.156;2024-03-29T04:11:05;7.30;1.00
10263;DHT22;5177;50.068;8.156;2024-03-29T04:13:31;7.40;99.90
10263;DHT22;5177;50.068;8.156;2024-03-29T04:16:03;7.40;1.00
10263;DHT22;5177;50.068;8.156;2024-03-29T04:18:28;7.30;99.90
10263;DHT22;5177;50.068;8.156;2024-03-29T04:21:00;7.30;99.90
10263;DHT22;5177;50.068;8.156;2024-03-29T04:23:26;7.30;1.00
10263;DHT22;5177;50.068;8.156;2024-03-29T04:25:55;7.30;1.00
10263;DHT22;5177;50.068;8.156;2024-03-29T04:28:21;7.20;1.00
10263;DHT22;5177;50.068;8.156;2024-03-29T04:30:50;7.20;1.00
10263;DHT22;5177;50.068;8.156;2024-03-29T04:33:16;7.20;99.90
10263;DHT22;5177;50.068;8.156;2024-03-29T04:35:49;7.20;99.90
10263;DHT22;5177;50.068;8.156;2024-03-29T04:38:15;7.20;30.70
10263;DHT22;5177;50.068;8.156;2024-03-29T04:40:40;7.20;1.00
10263;DHT22;5177;50.068;8.156;2024-03-29T04:43:06;7.20;1.00
10263;DHT22;5177;50.068;8.156;2024-03-29T04:45:31;7.20;34.00
10263;DHT22;5177;50.068;8.156;2024-03-29T04:47:57;7.20;1.00
10263;DHT22;5177;50.068;8.156;2024-03-29T04:50:22;7.20;99.90
10263;DHT22;5177;50.068;8.156;2024-03-29T04:52:48;7.20;1.00
10263;DHT22;5177;50.068;8.156;2024-03-29T04:55:13;7.30;66.60
10263;DHT22;5177;50.068;8.156;2024-03-29T04:57:42;7.30;1.00
10263;DHT22;5177;50.068;8.156;2024-03-29T05:00:07;7.30;99.90
10263;DHT22;5177;50.068;8.156;2024-03-29T05:02:34;7.30;1.00
10263;DHT22;5177;50.068;8.156;2024-03-29T05:05:00;7.30;99.90
10263;DHT22;5177;50.068;8.156;2024-03-29T05:07:25;7.30;61.80
10263;DHT22;5177;50.068;8.156;2024-03-29T05:09:50;7.30;1.00
10263;DHT22;5177;50.068;8.156;2024-03-29T05:12:16;7.30;1.00
10263;DHT22;5177;50.068;8.156;2024-03-29T05:14:41;7.30;1.00
10263;DHT22;5177;50.068;8.156;2024-03-29T05:17:07;7.30;99.90
10263;DHT22;5177;50.068;8.156;2024-03-29T05:19:34;7.30;1.00
10263;DHT22;5177;50.068;8.156;2024-03-29T05:22:00;7.30;92.40
10263;DHT22;5177;50.068;8.156;2024-03-29T05:24:26;7.30;99.90
10263;DHT22;5177;50.068;8.156;2024-03-29T05:26:51;7.30;99.90
10263;DHT22;5177;50.068;8.156;2024-03-29T05:29:17;7.30;1.00
10263;DHT22;5177;50.068;8.156;2024-03-29T05:31:42;7.40;99.90
10263;DHT22;5177;50.068;8.156;2024-03-29T05:34:08;7.40;1.00
10263;DHT22;5177;50.068;8.156;2024-03-29T05:36:33;7.40;99.90
10263;DHT22;5177;50.068;8.156;2024-03-29T05:39:01;7.50;99.90
10263;DHT22;5177;50.068;8.156;2024-03-29T05:41:27;7.60;1.00
10263;DHT22;5177;50.068;8.156;2024-03-29T05:43:52;7.50;1.00
10263;DHT22;5177;50.068;8.156;2024-03-29T05:46:18;7.50;1.00
10263;DHT22;5177;50.068;8.156;2024-03-29T05:48:43;7.50;99.90
10263;DHT22;5177;50.068;8.156;2024-03-29T05:51:09;7.50;99.90
10263;DHT22;5177;50.068;8.156;2024-03-29T05:53:34;7.40;99.90
10263;DHT22;5177;50.068;8.156;2024-03-29T05:56:00;7.40;99.90
10263;DHT22;5177;50.068;8.156;2024-03-29T05:58:25;7.40;98.30
10263;DHT22;5177;50.068;8.156;2024-03-29T06:00:51;7.50;14.70
10263;DHT22;5177;50.068;8.156;2024-03-29T06:03:16;7.40;99.10
10263;DHT22;5177;50.068;8.156;2024-03-29T06:05:42;7.60;99.90
10263;DHT22;5177;50.068;8.156;2024-03-29T06:08:08;7.60;99.90
10263;DHT22;5177;50.068;8.156;2024-03-29T06:10:33;7.60;99.90
10263;DHT22;5177;50.068;8.156;2024-03-29T06:12:59;7.60;46.50
10263;DHT22;5177;50.068;8.156;2024-03-29T06:15:43;7.60;60.80
10263;DHT22;5177;50.068;8.156;2024-03-29T06:18:27;7.60;99.90
10263;DHT22;5177;50.068;8.156;2024-03-29T06:20:52;7.60;1.00
10263;DHT22;5177;50.068;8.156;2024-03-29T06:23:18;7.60;1.00
10263;DHT22;5177;50.068;8.156;2024-03-29T06:25:44;7.70;99.90
10263;DHT22;5177;50.068;8.156;2024-03-29T06:28:10;7.70;1.00
10263;DHT22;5177;50.068;8.156;2024-03-29T06:30:35;7.70;1.00
10263;DHT22;5177;50.068;8.156;2024-03-29T06:33:01;7.70;1.00
10263;DHT22;5177;50.068;8.156;2024-03-29T06:35:29;7.70;99.90
10263;DHT22;5177;50.068;8.156;2024-03-29T06:37:55;7.80;99.90
10263;DHT22;5177;50.068;8.156;2024-03-29T06:40:21;7.80;99.90
10263;DHT22;5177;50.068;8.156;2024-03-29T06:42:46;7.90;57.50
10263;DHT22;5177;50.068;8.156;2024-03-29T06:45:12;7.80;99.90
10263;DHT22;5177;50.068;8.156;2024-03-29T06:47:37;7.80;1.00
10263;DHT22;5177;50.068;8.156;2024-03-29T06:50:03;7.80;1.00
10263;DHT22;5177;50.068;8.156;2024-03-29T06:52:29;7.80;1.00
10263;DHT22;5177;50.068;8.156;2024-03-29T06:54:54;7.80;99.90
10263;DHT22;5177;50.068;8.156;2024-03-29T06:57:20;7.80;99.90
10263;DHT22;5177;50.068;8.156;2024-03-29T06:59:50;8.00;99.90
10263;DHT22;5177;50.068;8.156;2024-03-29T07:02:15;8.00;1.00
10263;DHT22;5177;50.068;8.156;2024-03-29T07:04:41;7.90;99.90
10263;DHT22;5177;50.068;8.156;2024-03-29T07:07:06;8.00;14.40
10263;DHT22;5177;50.068;8.156;2024-03-29T07:09:32;8.00;99.90
10263;DHT22;5177;50.068;8.156;2024-03-29T07:11:57;8.00;99.90
10263;DHT22;5177;50.068;8.156;2024-03-29T07:14:24;8.00;1.00
10263;DHT22;5177;50.068;8.156;2024-03-29T07:16:51;8.00;99.90
10263;DHT22;5177;50.068;8.156;2024-03-29T07:19:17;8.10;1.00
10263;DHT22;5177;50.068;8.156;2024-03-29T07:21:44;8.00;99.90
10263;DHT22;5177;50.068;8.156;2024-03-29T07:24:09;8.10;1.00
10263;DHT22;5177;50.068;8.156;2024-03-29T07:26:35;8.10;1.00
10263;DHT22;5177;50.068;8.156;2024-03-29T07:29:01;8.10;99.90
10263;DHT22;5177;50.068;8.156;2024-03-29T07:31:26;8.20;1.00
10263;DHT22;5177;50.068;8.156;2024-03-29T07:33:52;8.30;1.00
10263;DHT22;5177;50.068;8.156;2024-03-29T07:36:17;8.30;59.20
10263;DHT22;5177;50.068;8.156;2024-03-29T07:38:43;8.40;1.00
10263;DHT22;5177;50.068;8.156;2024-03-29T07:41:11;8.50;99.90
10263;DHT22;5177;50.068;8.156;2024-03-29T07:43:51;8.50;99.90
10263;DHT22;5177;50.068;8.156;2024-03-29T07:46:17;8.60;1.00
10263;DHT22;5177;50.068;8.156;2024-03-29T07:48:43;8.60;1.00
10263;DHT22;5177;50.068;8.156;2024-03-29T07:51:08;8.60;99.90
10263;DHT22;5177;50.068;8.156;2024-03-29T07:53:34;8.70;1.00
10263;DHT22;5177;50.068;8.156;2024-03-29T07:55:59;8.70;7.40
10263;DHT22;5177;50.068;8.156;2024-03-29T07:58:26;8.80;1.00
10263;DHT22;5177;50.068;8.156;2024-03-29T08:00:51;8.90;99.90
10263;DHT22;5177;50.068;8.156;2024-03-29T08:03:17;8.90;1.00
10263;DHT22;5177;50.068;8.156;2024-03-29T08:05:42;9.00;99.90
10263;DHT22;5177;50.068;8.156;2024-03-29T08:08:08;9.00;99.90
10263;DHT22;5177;50.068;8.156;2024-03-29T08:10:33;9.00;1.00
10263;DHT22;5177;50.068;8.156;2024-03-29T08:12:59;9.10;39.60
10263;DHT22;5177;50.068;8.156;2024-03-29T08:15:26;9.10;99.90
10263;DHT22;5177;50.068;8.156;2024-03-29T08:17:52;9.10;99.90
10263;DHT22;5177;50.068;8.156;2024-03-29T08:20:18;9.20;1.00
10263;DHT22;5177;50.068;8.156;2024-03-29T08:22:44;9.20;1.00
10263;DHT22;5177;50.068;8.156;2024-03-29T08:25:09;9.20;1.00
10263;DHT22;5177;50.068;8.156;2024-03-29T08:27:35;9.10;46.50
10263;DHT22;5177;50.068;8.156;2024-03-29T08:30:01;9.20;99.90
10263;DHT22;5177;50.068;8.156;2024-03-29T08:32:26;9.10;1.00
10263;DHT22;5177;50.068;8.156;2024-03-29T08:34:52;9.10;99.90
10263;DHT22;5177;50.068;8.156;2024-03-29T08:37:18;9.10;99.90
10263;DHT22;5177;50.068;8.156;2024-03-29T08:39:43;9.10;1.00
10263;DHT22;5177;50.068;8.156;2024-03-29T08:42:09;9.20;1.00
10263;DHT22;5177;50.068;8.156;2024-03-29T08:44:37;9.10;1.00
10263;DHT22;5177;50.068;8.156;2024-03-29T08:47:03;9.10;99.90
10263;DHT22;5177;50.068;8.156;2024-03-29T08:49:29;9.10;1.00
10263;DHT22;5177;50.068;8.156;2024-03-29T08:51:55;9.20;1.00
10263;DHT22;5177;50.068;8.156;2024-03-29T08:54:21;9.20;1.00
10263;DHT22;5177;50.068;8.156;2024-03-29T08:56:47;9.20;1.00
10263;DHT22;5177;50.068;8.156;2024-03-29T08:59:12;9.20;1.00
10263;DHT22;5177;50.068;8.156;2024-03-29T09:01:44;9.20;99.90
10263;DHT22;5177;50.068;8.156;2024-03-29T09:04:10;9.20;1.00
10263;DHT22;5177;50.068;8.156;2024-03-29T09:06:39;9.10;99.90
10263;DHT22;5177;50.068;8.156;2024-03-29T09:09:05;9.20;91.60
10263;DHT22;5177;50.068;8.156;2024-03-29T09:11:31;9.30;1.00
10263;DHT22;5177;50.068;8.156;2024-03-29T09:13:57;9.30;99.90
10263;DHT22;5177;50.068;8.156;2024-03-29T09:16:24;9.30;99.90
10263;DHT22;5177;50.068;8.156;2024-03-29T09:18:50;9.30;99.90
10263;DHT22;5177;50.068;8.156;2024-03-29T09:21:15;9.40;99.90
10263;DHT22;5177;50.068;8.156;2024-03-29T09:23:41;9.40;1.00
10263;DHT22;5177;50.068;8.156;2024-03-29T09:26:07;9.50;1.00
10263;DHT22;5177;50.068;8.156;2024-03-29T09:28:32;9.50;35.80
10263;DHT22;5177;50.068;8.156;2024-03-29T09:31:00;9.60;1.00
10263;DHT22;5177;50.068;8.156;2024-03-29T09:33:25;9.70;99.90
10263;DHT22;5177;50.068;8.156;2024-03-29T09:35:51;9.70;1.00
10263;DHT22;5177;50.068;8.156;2024-03-29T09:38:17;9.90;1.00
10263;DHT22;5177;50.068;8.156;2024-03-29T09:40:42;9.80;99.90
10263;DHT22;5177;50.068;8.156;2024-03-29T09:43:08;9.80;1.00
10263;DHT22;5177;50.068;8.156;2024-03-29T09:45:35;9.80;99.90
10263;DHT22;5177;50.068;8.156;2024-03-29T09:48:05;9.90;1.00
10263;DHT22;5177;50.068;8.156;2024-03-29T09:50:32;9.90;99.90
10263;DHT22;5177;50.068;8.156;2024-03-29T09:52:58;9.90;40.60
10263;DHT22;5177;50.068;8.156;2024-03-29T09:55:24;10.00;1.00
10263;DHT22;5177;50.068;8.156;2024-03-29T09:57:50;10.10;1.00
10263;DHT22;5177;50.068;8.156;2024-03-29T10:00:16;10.20;1.00
10263;DHT22;5177;50.068;8.156;2024-03-29T10:02:43;10.30;99.90
10263;DHT22;5177;50.068;8.156;2024-03-29T10:05:08;10.40;99.90
10263;DHT22;5177;50.068;8.156;2024-03-29T10:07:36;10.40;1.00
10263;DHT22;5177;50.068;8.156;2024-03-29T10:10:03;10.30;1.00
10263;DHT22;5177;50.068;8.156;2024-03-29T10:12:28;10.40;1.00
10263;DHT22;5177;50.068;8.156;2024-03-29T10:14:54;10.50;1.00
10263;DHT22;5177;50.068;8.156;2024-03-29T10:17:30;10.50;99.90
10263;DHT22;5177;50.068;8.156;2024-03-29T10:19:59;10.50;99.90
10263;DHT22;5177;50.068;8.156;2024-03-29T10:22:25;10.40;29.70
10263;DHT22;5177;50.068;8.156;2024-03-29T10:24:50;10.50;1.00
10263;DHT22;5177;50.068;8.156;2024-03-29T10:27:16;10.50;1.00
10263;DHT22;5177;50.068;8.156;2024-03-29T10:29:42;10.50;1.00
10263;DHT22;5177;50.068;8.156;2024-03-29T10:32:08;10.50;99.90
10263;DHT22;5177;50.068;8.156;2024-03-29T10:34:34;10.50;99.90
10263;DHT22;5177;50.068;8.156;2024-03-29T10:37:02;10.50;99.90
10263;DHT22;5177;50.068;8.156;2024-03-29T10:39:28;10.60;99.90
10263;DHT22;5177;50.068;8.156;2024-03-29T10:41:54;10.60;99.90
10263;DHT22;5177;50.068;8.156;2024-03-29T10:44:20;10.70;99.90
10263;DHT22;5177;50.068;8.156;2024-03-29T10:46:46;10.80;99.90
10263;DHT22;5177;50.068;8.156;2024-03-29T10:49:13;10.70;99.90
10263;DHT22;5177;50.068;8.156;2024-03-29T10:51:42;10.70;99.90
10263;DHT22;5177;50.068;8.156;2024-03-29T10:54:08;10.70;99.90
10263;DHT22;5177;50.068;8.156;2024-03-29T10:56:35;10.70;99.90
10263;DHT22;5177;50.068;8.156;2024-03-29T10:59:03;10.70;1.00
10263;DHT22;5177;50.068;8.156;2024-03-29T11:01:29;10.70;99.90
10263;DHT22;5177;50.068;8.156;2024-03-29T11:03:58;10.60;99.90
10263;DHT22;5177;50.068;8.156;2024-03-29T11:06:28;10.60;1.00
10263;DHT22;5177;50.068;8.156;2024-03-29T11:08:54;10.60;1.00
10263;DHT22;5177;50.068;8.156;2024-03-29T11:11:21;10.60;1.00
10263;DHT22;5177;50.068;8.156;2024-03-29T11:16:17;10.90;1.00
10263;DHT22;5177;50.068;8.156;2024-03-29T11:18:44;10.90;99.90
10263;DHT22;5177;50.068;8.156;2024-03-29T11:21:10;11.00;99.90
10263;DHT22;5177;50.068;8.156;2024-03-29T11:23:37;11.00;1.00
10263;DHT22;5177;50.068;8.156;2024-03-29T11:26:03;11.00;1.00
10263;DHT22;5177;50.068;8.156;2024-03-29T11:28:30;11.00;99.90
10263;DHT22;5177;50.068;8.156;2024-03-29T11:35:51;10.90;1.00
10263;DHT22;5177;50.068;8.156;2024-03-29T11:38:17;10.80;1.00
10263;DHT22;5177;50.068;8.156;2024-03-29T11:40:52;10.80;99.90
10263;DHT22;5177;50.068;8.156;2024-03-29T11:43:19;10.80;97.90
10263;DHT22;5177;50.068;8.156;2024-03-29T11:45:46;10.80;99.90
10263;DHT22;5177;50.068;8.156;2024-03-29T11:48:17;10.80;1.00
10263;DHT22;5177;50.068;8.156;2024-03-29T11:50:45;10.80;1.00
10263;DHT22;5177;50.068;8.156;2024-03-29T11:53:11;10.90;1.00
10263;DHT22;5177;50.068;8.156;2024-03-29T11:55:37;11.00;1.00
10263;DHT22;5177;50.068;8.156;2024-03-29T11:58:04;11.00;13.80
10263;DHT22;5177;50.068;8.156;2024-03-29T12:00:31;11.20;99.90
10263;DHT22;5177;50.068;8.156;2024-03-29T12:02:57;11.20;1.00
10263;DHT22;5177;50.068;8.156;2024-03-29T12:05:23;11.10;1.00
10263;DHT22;5177;50.068;8.156;2024-03-29T12:07:49;11.10;99.90
10263;DHT22;5177;50.068;8.156;2024-03-29T12:10:15;11.10;99.90
10263;DHT22;5177;50.068;8.156;2024-03-29T12:12:41;11.00;35.20
10263;DHT22;5177;50.068;8.156;2024-03-29T12:15:07;11.00;99.90
10263;DHT22;5177;50.068;8.156;2024-03-29T12:17:33;11.00;99.90
10263;DHT22;5177;50.068;8.156;2024-03-29T12:19:59;11.00;99.90
10263;DHT22;5177;50.068;8.156;2024-03-29T12:22:31;11.00;99.90
10263;DHT22;5177;50.068;8.156;2024-03-29T12:24:57;10.90;99.90
10263;DHT22;5177;50.068;8.156;2024-03-29T12:27:23;11.00;99.90
10263;DHT22;5177;50.068;8.156;2024-03-29T12:29:50;11.10;1.00
10263;DHT22;5177;50.068;8.156;2024-03-29T12:32:18;11.10;2.30
10263;DHT22;5177;50.068;8.156;2024-03-29T12:34:47;11.20;1.00
10263;DHT22;5177;50.068;8.156;2024-03-29T12:37:12;11.10;99.90
10263;DHT22;5177;50.068;8.156;2024-03-29T12:39:41;11.20;99.90
10263;DHT22;5177;50.068;8.156;2024-03-29T12:42:07;11.20;1.00
10263;DHT22;5177;50.068;8.156;2024-03-29T12:44:32;11.20;91.40
10263;DHT22;5177;50.068;8.156;2024-03-29T12:47:01;11.20;1.00
10263;DHT22;5177;50.068;8.156;2024-03-29T12:49:26;11.20;99.90
10263;DHT22;5177;50.068;8.156;2024-03-29T12:51:52;11.40;99.90
10263;DHT22;5177;50.068;8.156;2024-03-29T12:54:18;11.50;99.90
10263;DHT22;5177;50.068;8.156;2024-03-29T12:56:44;11.50;99.90
10263;DHT22;5177;50.068;8.156;2024-03-29T12:59:10;11.50;1.00
10263;DHT22;5177;50.068;8.156;2024-03-29T13:01:35;11.60;1.00
10263;DHT22;5177;50.068;8.156;2024-03-29T13:04:01;11.60;1.00
10263;DHT22;5177;50.068;8.156;2024-03-29T13:06:26;11.60;7.10
10263;DHT22;5177;50.068;8.156;2024-03-29T13:08:52;11.70;99.90
10263;DHT22;5177;50.068;8.156;2024-03-29T13:11:19;11.70;99.90
10263;DHT22;5177;50.068;8.156;2024-03-29T13:13:44;11.80;99.90
10263;DHT22;5177;50.068;8.156;2024-03-29T13:16:10;11.90;89.10
10263;DHT22;5177;50.068;8.156;2024-03-29T13:18:35;12.00;99.90
10263;DHT22;5177;50.068;8.156;2024-03-29T13:21:01;12.00;99.90
10263;DHT22;5177;50.068;8.156;2024-03-29T13:23:28;12.00;92.00
10263;DHT22;5177;50.068;8.156;2024-03-29T13:25:54;12.10;10.20
10263;DHT22;5177;50.068;8.156;2024-03-29T13:28:21;12.00;3.90
10263;DHT22;5177;50.068;8.156;2024-03-29T13:30:47;12.10;1.80
10263;DHT22;5177;50.068;8.156;2024-03-29T13:33:14;12.00;89.70
10263;DHT22;5177;50.068;8.156;2024-03-29T13:35:42;12.00;99.90
10263;DHT22;5177;50.068;8.156;2024-03-29T13:38:07;12.00;49.80
10263;DHT22;5177;50.068;8.156;2024-03-29T13:40:33;12.10;97.80
10263;DHT22;5177;50.068;8.156;2024-03-29T13:42:59;12.10;96.30
10263;DHT22;5177;50.068;8.156;2024-03-29T13:45:25;12.10;93.80
10263;DHT22;5177;50.068;8.156;2024-03-29T13:47:54;12.10;91.20
10263;DHT22;5177;50.068;8.156;2024-03-29T13:50:19;12.20;1.00
10263;DHT22;5177;50.068;8.156;2024-03-29T13:52:46;12.20;7.50
10263;DHT22;5177;50.068;8.156;2024-03-29T13:55:12;12.20;24.20
10263;DHT22;5177;50.068;8.156;2024-03-29T13:57:37;12.10;41.80
10263;DHT22;5177;50.068;8.156;2024-03-29T14:00:03;12.20;99.90
10263;DHT22;5177;50.068;8.156;2024-03-29T14:02:31;12.30;99.90
10263;DHT22;5177;50.068;8.156;2024-03-29T14:04:56;12.30;77.40
10263;DHT22;5177;50.068;8.156;2024-03-29T14:07:22;12.40;99.90
10263;DHT22;5177;50.068;8.156;2024-03-29T14:09:51;12.60;99.90
10263;DHT22;5177;50.068;8.156;2024-03-29T14:12:17;12.70;99.90
10263;DHT22;5177;50.068;8.156;2024-03-29T14:14:43;12.70;99.90
10263;DHT22;5177;50.068;8.156;2024-03-29T14:17:09;12.70;1.00
10263;DHT22;5177;50.068;8.156;2024-03-29T14:19:38;12.80;1.00
10263;DHT22;5177;50.068;8.156;2024-03-29T14:22:04;12.80;1.00
10263;DHT22;5177;50.068;8.156;2024-03-29T14:24:30;12.70;1.00
10263;DHT22;5177;50.068;8.156;2024-03-29T14:26:58;12.70;1.00
10263;DHT22;5177;50.068;8.156;2024-03-29T14:29:25;12.80;1.00
10263;DHT22;5177;50.068;8.156;2024-03-29T14:31:51;12.90;1.00
10263;DHT22;5177;50.068;8.156;2024-03-29T14:34:20;12.90;1.00
10263;DHT22;5177;50.068;8.156;2024-03-29T14:36:45;12.90;1.00
10263;DHT22;5177;50.068;8.156;2024-03-29T14:39:12;13.00;1.00
10263;DHT22;5177;50.068;8.156;2024-03-29T14:41:38;13.10;45.10
10263;DHT22;5177;50.068;8.156;2024-03-29T14:44:05;13.10;17.40
10263;DHT22;5177;50.068;8.156;2024-03-29T14:46:32;13.20;99.90
10263;DHT22;5177;50.068;8.156;2024-03-29T14:48:58;13.30;1.00
10263;DHT22;5177;50.068;8.156;2024-03-29T14:51:23;13.20;99.90
10263;DHT22;5177;50.068;8.156;2024-03-29T14:53:49;13.20;2.10
10263;DHT22;5177;50.068;8.156;2024-03-29T14:56:18;13.30;1.00
10263;DHT22;5177;50.068;8.156;2024-03-29T14:58:43;13.30;99.90
10263;DHT22;5177;50.068;8.156;2024-03-29T15:01:09;13.20;24.90
10263;DHT22;5177;50.068;8.156;2024-03-29T15:03:35;13.10;99.90
10263;DHT22;5177;50.068;8.156;2024-03-29T15:06:00;13.00;1.00
10263;DHT22;5177;50.068;8.156;2024-03-29T15:08:27;12.90;1.00
10263;DHT22;5177;50.068;8.156;2024-03-29T15:10:59;12.80;1.00
10263;DHT22;5177;50.068;8.156;2024-03-29T15:13:25;12.70;1.00
10263;DHT22;5177;50.068;8.156;2024-03-29T15:15:57;12.60;61.20
10263;DHT22;5177;50.068;8.156;2024-03-29T15:18:23;12.50;94.40
10263;DHT22;5177;50.068;8.156;2024-03-29T15:20:55;12.50;73.50
10263;DHT22;5177;50.068;8.156;2024-03-29T15:23:21;12.50;85.90
10263;DHT22;5177;50.068;8.156;2024-03-29T15:25:53;12.40;75.70
10263;DHT22;5177;50.068;8.156;2024-03-29T15:28:23;12.40;99.90
10263;DHT22;5177;50.068;8.156;2024-03-29T15:31:17;12.40;82.50
10263;DHT22;5177;50.068;8.156;2024-03-29T15:33:54;12.40;99.90
10263;DHT22;5177;50.068;8.156;2024-03-29T15:36:20;12.30;99.90
10263;DHT22;5177;50.068;8.156;2024-03-29T15:38:49;12.30;99.90
10263;DHT22;5177;50.068;8.156;2024-03-29T15:41:16;12.30;99.90
10263;DHT22;5177;50.068;8.156;2024-03-29T15:43:42;12.30;99.90
10263;DHT22;5177;50.068;8.156;2024-03-29T15:46:08;12.20;99.90
10263;DHT22;5177;50.068;8.156;2024-03-29T15:48:37;12.20;99.90
10263;DHT22;5177;50.068;8.156;2024-03-29T15:51:03;12.30;99.90
10263;DHT22;5177;50.068;8.156;2024-03-29T15:53:30;12.20;99.90
10263;DHT22;5177;50.068;8.156;2024-03-29T15:55:55;12.20;99.90
10263;DHT22;5177;50.068;8.156;2024-03-29T15:58:23;12.20;99.90
10263;DHT22;5177;50.068;8.156;2024-03-29T16:00:49;12.20;99.90
10263;DHT22;5177;50.068;8.156;2024-03-29T16:03:16;12.20;99.90